Terminal Aerodrome Forecast
Issued by NWS

Home | Current Version | Previous Version | Graphics & Text | Print | Product List | Glossary On
Versions: 1 2 3 4 5 6 7 8 9 10 11 12 13
993
FTUS43 KOAX 052158 AAB
TAFCDR
TAF AMD
KCDR 052158Z 0522/0618 30019G29KT P6SM BKN070
     FM060100 31012KT P6SM SCT070=

USA.gov is the U.S. government's official web portal to all federal, state and local government web resources and services.